ROT648P LRCL-LROP
Flight info
| Callsign | ROT648P |
|---|---|
| Flight time | 0h 34m |
| Altitude | 25000 |
| Route | IRLOX DCT BIVBU DCT TOSVI |
| Aircraft | A320/M-SDE3FGHIRWY/LB1 |
Departure
| Time | 2026-04-21 18:31 |
|---|---|
| Airport | Avram Iancu Cluj International Airport (LRCL) |
Arrival
| Time | 2026-04-21 19:06 |
|---|---|
| Airport | Bucharest Henri Coandă International Airport (LROP) |
| Time | Latitude | Longitude | Altitude | Speed | Heading |
|---|---|---|---|---|---|
| 2026-04-21 18:10 | 46.78361 | 23.68817 | 1016 ft | 0 kts | 175° |
| 2026-04-21 18:23 | 46.78372 | 23.68815 | 1043 ft | 3 kts | 171° |
| 2026-04-21 18:23 | 46.78398 | 23.68805 | 1043 ft | 3 kts | 149° |
| 2026-04-21 18:23 | 46.78415 | 23.68781 | 1043 ft | 3 kts | 101° |
| 2026-04-21 18:24 | 46.78416 | 23.68764 | 1043 ft | 1 kts | 85° |
| 2026-04-21 18:24 | 46.78416 | 23.68763 | 1043 ft | 0 kts | 85° |
| 2026-04-21 18:26 | 46.78417 | 23.68780 | 1043 ft | 7 kts | 85° |
| 2026-04-21 18:26 | 46.78422 | 23.68878 | 1043 ft | 9 kts | 85° |
| 2026-04-21 18:26 | 46.78440 | 23.68942 | 1043 ft | 6 kts | 23° |
| 2026-04-21 18:27 | 46.78474 | 23.68936 | 1043 ft | 4 kts | 342° |
| 2026-04-21 18:27 | 46.78540 | 23.68904 | 1043 ft | 17 kts | 341° |
| 2026-04-21 18:27 | 46.78654 | 23.68871 | 1043 ft | 16 kts | 27° |
| 2026-04-21 18:27 | 46.78675 | 23.68907 | 1043 ft | 13 kts | 63° |
| 2026-04-21 18:28 | 46.78696 | 23.68990 | 1043 ft | 11 kts | 69° |
| 2026-04-21 18:28 | 46.78720 | 23.69090 | 1043 ft | 10 kts | 75° |
| 2026-04-21 18:28 | 46.78737 | 23.69179 | 1043 ft | 8 kts | 68° |
| 2026-04-21 18:28 | 46.78773 | 23.69223 | 1043 ft | 7 kts | 7° |
| 2026-04-21 18:29 | 46.78831 | 23.69203 | 1043 ft | 9 kts | 341° |
| 2026-04-21 18:29 | 46.78886 | 23.69176 | 1043 ft | 8 kts | 341° |
| 2026-04-21 18:29 | 46.78927 | 23.69207 | 1043 ft | 11 kts | 59° |
| 2026-04-21 18:29 | 46.78964 | 23.69370 | 1043 ft | 19 kts | 72° |
| 2026-04-21 18:30 | 46.78991 | 23.69548 | 1043 ft | 13 kts | 104° |
| 2026-04-21 18:30 | 46.79001 | 23.69618 | 1043 ft | 6 kts | 58° |
| 2026-04-21 18:30 | 46.79016 | 23.69616 | 1043 ft | 1 kts | 298° |
| 2026-04-21 18:30 | 46.79004 | 23.69555 | 1043 ft | 21 kts | 253° |
| 2026-04-21 18:31 | 46.78873 | 23.68967 | 1043 ft | 98 kts | 251° |
| 2026-04-21 18:31 | 46.78600 | 23.67730 | 1050 ft | 154 kts | 255° |
| 2026-04-21 18:31 | 46.78275 | 23.66212 | 1692 ft | 152 kts | 254° |
| 2026-04-21 18:31 | 46.77956 | 23.64749 | 2381 ft | 151 kts | 255° |
| 2026-04-21 18:32 | 46.77629 | 23.63202 | 2796 ft | 169 kts | 256° |
| 2026-04-21 18:32 | 46.77278 | 23.61456 | 3199 ft | 188 kts | 257° |
| 2026-04-21 18:32 | 46.76909 | 23.59506 | 3549 ft | 212 kts | 257° |
| 2026-04-21 18:32 | 46.76278 | 23.57442 | 3931 ft | 240 kts | 233° |
| 2026-04-21 18:33 | 46.74816 | 23.56049 | 4459 ft | 267 kts | 194° |
| 2026-04-21 18:33 | 46.72935 | 23.56094 | 5340 ft | 277 kts | 169° |
| 2026-04-21 18:33 | 46.71910 | 23.56431 | 5872 ft | 279 kts | 165° |
| 2026-04-21 18:34 | 46.70790 | 23.56876 | 6124 ft | 297 kts | 163° |
| 2026-04-21 18:34 | 46.70211 | 23.57131 | 6287 ft | 302 kts | 162° |
| 2026-04-21 18:35 | 46.68889 | 23.57752 | 6997 ft | 296 kts | 161° |
| 2026-04-21 18:35 | 46.67815 | 23.58276 | 7654 ft | 294 kts | 161° |
| 2026-04-21 18:35 | 46.65896 | 23.59222 | 8805 ft | 291 kts | 162° |
| 2026-04-21 18:35 | 46.63963 | 23.60155 | 9787 ft | 294 kts | 163° |
| 2026-04-21 18:36 | 46.61996 | 23.61074 | 10468 ft | 306 kts | 163° |
| 2026-04-21 18:36 | 46.59881 | 23.62033 | 10778 ft | 330 kts | 164° |
| 2026-04-21 18:36 | 46.57640 | 23.63022 | 11361 ft | 341 kts | 165° |
| 2026-04-21 18:36 | 46.55357 | 23.64017 | 12139 ft | 346 kts | 165° |
| 2026-04-21 18:37 | 46.53033 | 23.65026 | 12958 ft | 350 kts | 165° |
| 2026-04-21 18:37 | 46.50683 | 23.66046 | 13771 ft | 354 kts | 165° |
| 2026-04-21 18:37 | 46.48315 | 23.67077 | 14480 ft | 358 kts | 165° |
| 2026-04-21 18:37 | 46.45914 | 23.68122 | 15171 ft | 362 kts | 165° |
| 2026-04-21 18:38 | 46.43480 | 23.69182 | 15854 ft | 366 kts | 165° |
| 2026-04-21 18:38 | 46.41031 | 23.70246 | 16516 ft | 371 kts | 165° |
| 2026-04-21 18:38 | 46.38538 | 23.71327 | 17189 ft | 375 kts | 165° |
| 2026-04-21 18:38 | 46.36115 | 23.72769 | 17841 ft | 382 kts | 151° |
| 2026-04-21 18:39 | 46.33844 | 23.74810 | 18478 ft | 387 kts | 149° |
| 2026-04-21 18:39 | 46.31557 | 23.76904 | 19069 ft | 391 kts | 149° |
| 2026-04-21 18:39 | 46.30005 | 23.78332 | 19475 ft | 393 kts | 149° |
| 2026-04-21 18:39 | 46.27681 | 23.80475 | 20062 ft | 397 kts | 148° |
| 2026-04-21 18:40 | 46.25344 | 23.82630 | 20662 ft | 401 kts | 148° |
| 2026-04-21 18:40 | 46.22982 | 23.84802 | 21238 ft | 405 kts | 148° |
| 2026-04-21 18:40 | 46.20587 | 23.86998 | 21811 ft | 409 kts | 148° |
| 2026-04-21 18:40 | 46.18172 | 23.89209 | 22380 ft | 413 kts | 148° |
| 2026-04-21 18:41 | 46.15730 | 23.91442 | 22931 ft | 417 kts | 148° |
| 2026-04-21 18:41 | 46.13269 | 23.93687 | 23475 ft | 421 kts | 148° |
| 2026-04-21 18:41 | 46.10813 | 23.95924 | 23929 ft | 425 kts | 148° |
| 2026-04-21 18:41 | 46.08309 | 23.98204 | 24361 ft | 428 kts | 149° |
| 2026-04-21 18:42 | 46.05745 | 24.00540 | 24747 ft | 432 kts | 149° |
| 2026-04-21 18:42 | 46.03229 | 24.02832 | 24994 ft | 435 kts | 149° |
| 2026-04-21 18:42 | 46.00651 | 24.05178 | 25044 ft | 431 kts | 149° |
| 2026-04-21 18:42 | 45.98150 | 24.07452 | 25043 ft | 429 kts | 150° |
| 2026-04-21 18:43 | 45.95595 | 24.09769 | 25041 ft | 429 kts | 150° |
| 2026-04-21 18:43 | 45.93071 | 24.12054 | 25038 ft | 428 kts | 150° |
| 2026-04-21 18:43 | 45.90542 | 24.14338 | 25035 ft | 428 kts | 150° |
| 2026-04-21 18:43 | 45.88055 | 24.16581 | 25032 ft | 428 kts | 150° |
| 2026-04-21 18:44 | 45.85533 | 24.18852 | 25032 ft | 428 kts | 150° |
| 2026-04-21 18:44 | 45.83007 | 24.21127 | 25031 ft | 428 kts | 150° |
| 2026-04-21 18:44 | 45.80453 | 24.23429 | 25032 ft | 428 kts | 150° |
| 2026-04-21 18:44 | 45.77930 | 24.25701 | 25015 ft | 428 kts | 151° |
| 2026-04-21 18:45 | 45.75402 | 24.27974 | 25019 ft | 429 kts | 151° |
| 2026-04-21 18:45 | 45.72870 | 24.30242 | 25019 ft | 430 kts | 151° |
| 2026-04-21 18:45 | 45.70390 | 24.32640 | 25022 ft | 433 kts | 142° |
| 2026-04-21 18:45 | 45.68161 | 24.35549 | 25053 ft | 434 kts | 139° |
| 2026-04-21 18:46 | 45.65952 | 24.38497 | 25054 ft | 435 kts | 139° |
| 2026-04-21 18:46 | 45.63771 | 24.41419 | 25053 ft | 435 kts | 139° |
| 2026-04-21 18:46 | 45.61533 | 24.44426 | 25054 ft | 436 kts | 139° |
| 2026-04-21 18:46 | 45.59324 | 24.47392 | 25058 ft | 436 kts | 139° |
| 2026-04-21 18:47 | 45.57115 | 24.50353 | 25052 ft | 436 kts | 139° |
| 2026-04-21 18:47 | 45.54905 | 24.53306 | 25057 ft | 436 kts | 140° |
| 2026-04-21 18:47 | 45.52709 | 24.56234 | 25056 ft | 437 kts | 140° |
| 2026-04-21 18:47 | 45.50490 | 24.59186 | 25029 ft | 437 kts | 140° |
| 2026-04-21 18:48 | 45.48233 | 24.62180 | 24911 ft | 436 kts | 141° |
| 2026-04-21 18:48 | 45.46015 | 24.65118 | 24665 ft | 434 kts | 141° |
| 2026-04-21 18:48 | 45.43846 | 24.67989 | 24358 ft | 429 kts | 141° |
| 2026-04-21 18:48 | 45.41639 | 24.70909 | 23817 ft | 426 kts | 140° |
| 2026-04-21 18:49 | 45.39468 | 24.73777 | 23232 ft | 425 kts | 140° |
| 2026-04-21 18:49 | 45.37319 | 24.76612 | 22737 ft | 419 kts | 140° |
| 2026-04-21 18:49 | 45.35907 | 24.78472 | 22398 ft | 417 kts | 141° |
| 2026-04-21 18:49 | 45.33073 | 24.82195 | 21719 ft | 412 kts | 140° |
| 2026-04-21 18:50 | 45.30975 | 24.84949 | 21207 ft | 410 kts | 140° |
| 2026-04-21 18:50 | 45.28889 | 24.87686 | 20690 ft | 407 kts | 140° |
| 2026-04-21 18:50 | 45.26813 | 24.90409 | 20161 ft | 404 kts | 139° |
| 2026-04-21 18:50 | 45.24754 | 24.93106 | 19630 ft | 402 kts | 139° |
| 2026-04-21 18:51 | 45.22707 | 24.95783 | 19089 ft | 400 kts | 139° |
| 2026-04-21 18:51 | 45.20663 | 24.98453 | 18558 ft | 398 kts | 139° |
| 2026-04-21 18:51 | 45.18632 | 25.01103 | 17967 ft | 396 kts | 139° |
| 2026-04-21 18:51 | 45.16611 | 25.03739 | 17438 ft | 393 kts | 139° |
| 2026-04-21 18:52 | 45.14606 | 25.06350 | 16913 ft | 389 kts | 139° |
| 2026-04-21 18:52 | 45.12627 | 25.08923 | 16399 ft | 386 kts | 139° |
| 2026-04-21 18:52 | 45.10651 | 25.11489 | 15883 ft | 383 kts | 139° |
| 2026-04-21 18:52 | 45.08722 | 25.13993 | 15381 ft | 380 kts | 139° |
| 2026-04-21 18:53 | 45.06752 | 25.16549 | 14798 ft | 379 kts | 139° |
| 2026-04-21 18:53 | 45.04816 | 25.19061 | 14288 ft | 376 kts | 138° |
| 2026-04-21 18:53 | 45.02896 | 25.21554 | 13770 ft | 374 kts | 138° |
| 2026-04-21 18:53 | 45.00989 | 25.24025 | 13225 ft | 370 kts | 138° |
| 2026-04-21 18:54 | 44.99123 | 25.26439 | 12728 ft | 366 kts | 138° |
| 2026-04-21 18:54 | 44.97231 | 25.28878 | 12212 ft | 362 kts | 138° |
| 2026-04-21 18:54 | 44.95401 | 25.31232 | 11701 ft | 359 kts | 138° |
| 2026-04-21 18:54 | 44.93564 | 25.33594 | 11190 ft | 355 kts | 138° |
| 2026-04-21 18:55 | 44.92340 | 25.35171 | 10840 ft | 353 kts | 138° |
| 2026-04-21 18:55 | 44.89954 | 25.38253 | 10307 ft | 344 kts | 138° |
| 2026-04-21 18:55 | 44.88226 | 25.40481 | 10178 ft | 330 kts | 138° |
| 2026-04-21 18:55 | 44.86539 | 25.42655 | 10049 ft | 317 kts | 138° |
| 2026-04-21 18:56 | 44.84960 | 25.44682 | 9896 ft | 307 kts | 139° |
| 2026-04-21 18:56 | 44.83389 | 25.46693 | 9445 ft | 306 kts | 138° |
| 2026-04-21 18:56 | 44.81818 | 25.48704 | 9095 ft | 301 kts | 138° |
| 2026-04-21 18:56 | 44.80283 | 25.50669 | 8416 ft | 298 kts | 138° |
| 2026-04-21 18:57 | 44.78759 | 25.52616 | 7815 ft | 293 kts | 139° |
| 2026-04-21 18:57 | 44.77240 | 25.54554 | 7308 ft | 296 kts | 139° |
| 2026-04-21 18:57 | 44.75724 | 25.56490 | 6891 ft | 294 kts | 139° |
| 2026-04-21 18:57 | 44.74207 | 25.58427 | 6500 ft | 291 kts | 139° |
| 2026-04-21 18:58 | 44.72717 | 25.60329 | 6000 ft | 287 kts | 139° |
| 2026-04-21 18:58 | 44.71245 | 25.62208 | 5412 ft | 284 kts | 139° |
| 2026-04-21 18:58 | 44.69798 | 25.64053 | 4857 ft | 279 kts | 139° |
| 2026-04-21 18:58 | 44.68372 | 25.65871 | 4320 ft | 273 kts | 138° |
| 2026-04-21 18:59 | 44.66978 | 25.67649 | 3860 ft | 269 kts | 137° |
| 2026-04-21 18:59 | 44.65610 | 25.69392 | 3525 ft | 263 kts | 137° |
| 2026-04-21 18:59 | 44.64274 | 25.71090 | 3263 ft | 254 kts | 137° |
| 2026-04-21 18:59 | 44.62998 | 25.72708 | 3126 ft | 240 kts | 136° |
| 2026-04-21 19:00 | 44.61791 | 25.74234 | 3019 ft | 227 kts | 136° |
| 2026-04-21 19:00 | 44.60644 | 25.75684 | 2923 ft | 219 kts | 136° |
| 2026-04-21 19:00 | 44.59543 | 25.77079 | 2840 ft | 208 kts | 136° |
| 2026-04-21 19:00 | 44.58485 | 25.78418 | 2733 ft | 202 kts | 136° |
| 2026-04-21 19:01 | 44.57449 | 25.79729 | 2636 ft | 200 kts | 136° |
| 2026-04-21 19:01 | 44.56480 | 25.81106 | 2561 ft | 197 kts | 123° |
| 2026-04-21 19:01 | 44.55907 | 25.82817 | 2502 ft | 196 kts | 102° |
| 2026-04-21 19:01 | 44.55827 | 25.84741 | 2507 ft | 199 kts | 84° |
| 2026-04-21 19:02 | 44.55979 | 25.86673 | 2507 ft | 200 kts | 84° |
| 2026-04-21 19:02 | 44.56133 | 25.88605 | 2507 ft | 199 kts | 84° |
| 2026-04-21 19:02 | 44.56285 | 25.90537 | 2510 ft | 200 kts | 84° |
| 2026-04-21 19:02 | 44.56435 | 25.92462 | 2497 ft | 195 kts | 84° |
| 2026-04-21 19:03 | 44.56578 | 25.94309 | 2359 ft | 187 kts | 84° |
| 2026-04-21 19:03 | 44.56714 | 25.96070 | 2156 ft | 176 kts | 84° |
| 2026-04-21 19:03 | 44.56841 | 25.97706 | 1899 ft | 161 kts | 84° |
| 2026-04-21 19:03 | 44.56952 | 25.99154 | 1702 ft | 140 kts | 84° |
| 2026-04-21 19:04 | 44.57053 | 26.00464 | 1510 ft | 131 kts | 83° |
| 2026-04-21 19:04 | 44.57149 | 26.01715 | 1335 ft | 128 kts | 83° |
| 2026-04-21 19:04 | 44.57244 | 26.02953 | 1146 ft | 128 kts | 82° |
| 2026-04-21 19:04 | 44.57340 | 26.04201 | 958 ft | 129 kts | 83° |
| 2026-04-21 19:05 | 44.57436 | 26.05463 | 786 ft | 131 kts | 82° |
| 2026-04-21 19:05 | 44.57536 | 26.06731 | 597 ft | 132 kts | 82° |
| 2026-04-21 19:05 | 44.57636 | 26.07992 | 434 ft | 130 kts | 82° |
| 2026-04-21 19:05 | 44.57720 | 26.09224 | 323 ft | 117 kts | 82° |
| 2026-04-21 19:06 | 44.57791 | 26.10146 | 323 ft | 74 kts | 84° |
| 2026-04-21 19:06 | 44.57831 | 26.10727 | 323 ft | 44 kts | 89° |
| 2026-04-21 19:06 | 44.57798 | 26.11004 | 322 ft | 24 kts | 110° |
| 2026-04-21 19:06 | 44.57755 | 26.11143 | 322 ft | 12 kts | 115° |
| 2026-04-21 19:07 | 44.57701 | 26.11157 | 322 ft | 7 kts | 234° |
| 2026-04-21 19:07 | 44.57688 | 26.11088 | 322 ft | 11 kts | 263° |
| 2026-04-21 19:07 | 44.57677 | 26.10932 | 322 ft | 17 kts | 265° |
| 2026-04-21 19:07 | 44.57665 | 26.10766 | 322 ft | 17 kts | 263° |
| 2026-04-21 19:08 | 44.57652 | 26.10611 | 322 ft | 15 kts | 264° |
| 2026-04-21 19:08 | 44.57643 | 26.10474 | 322 ft | 13 kts | 264° |
| 2026-04-21 19:08 | 44.57633 | 26.10354 | 322 ft | 12 kts | 263° |
| 2026-04-21 19:08 | 44.57623 | 26.10222 | 322 ft | 18 kts | 264° |
| 2026-04-21 19:09 | 44.57609 | 26.10020 | 322 ft | 21 kts | 264° |
| 2026-04-21 19:09 | 44.57591 | 26.09810 | 323 ft | 23 kts | 263° |
| 2026-04-21 19:09 | 44.57575 | 26.09580 | 323 ft | 24 kts | 264° |
| 2026-04-21 19:09 | 44.57557 | 26.09338 | 323 ft | 26 kts | 264° |
| 2026-04-21 19:10 | 44.57537 | 26.09081 | 321 ft | 27 kts | 263° |
| 2026-04-21 19:10 | 44.57517 | 26.08818 | 323 ft | 26 kts | 264° |
| 2026-04-21 19:10 | 44.57499 | 26.08587 | 323 ft | 16 kts | 265° |
| 2026-04-21 19:10 | 44.57482 | 26.08483 | 323 ft | 9 kts | 232° |
| 2026-04-21 19:11 | 44.57430 | 26.08475 | 323 ft | 7 kts | 174° |
| 2026-04-21 19:11 | 44.57338 | 26.08489 | 323 ft | 15 kts | 174° |
| 2026-04-21 19:11 | 44.57246 | 26.08500 | 321 ft | 9 kts | 187° |
| 2026-04-21 19:11 | 44.57228 | 26.08437 | 323 ft | 7 kts | 266° |
| 2026-04-21 19:12 | 44.57226 | 26.08396 | 323 ft | 6 kts | 265° |
| 2026-04-21 19:12 | 44.57218 | 26.08289 | 323 ft | 11 kts | 263° |
| 2026-04-21 19:12 | 44.57211 | 26.08188 | 323 ft | 10 kts | 264° |
| 2026-04-21 19:12 | 44.57204 | 26.08101 | 323 ft | 8 kts | 264° |
| 2026-04-21 19:13 | 44.57199 | 26.08029 | 323 ft | 7 kts | 264° |
| 2026-04-21 19:13 | 44.57201 | 26.08002 | 323 ft | 2 kts | 301° |
| 2026-04-21 19:13 | 44.57236 | 26.07991 | 323 ft | 2 kts | 352° |
| 2026-04-21 19:13 | 44.57244 | 26.07990 | 323 ft | 1 kts | 352° |
| 2026-04-21 19:14 | 44.57246 | 26.07990 | 323 ft | 1 kts | 352° |
| 2026-04-21 19:14 | 44.57253 | 26.07988 | 323 ft | 0 kts | 353° |
| 2026-04-21 19:14 | 44.57254 | 26.07988 | 323 ft | 2 kts | 353° |
| 2026-04-21 19:14 | 44.57257 | 26.07987 | 323 ft | 0 kts | 353° |
| 2026-04-21 19:15 | 44.57259 | 26.07987 | 323 ft | 0 kts | 353° |